Estación Meteorológica Peña el Pijo (Robertgarden) [ 07/19/24 11:43:24 CEST ]

Fecha Hora Presion(HPa) Temp (°C) Humedad % Rocio (°C) Viento ( m/s) Direccion Lluvia 1Hora(mm) Lluvia 24H(mm) LLuvia Total(mm)
2011-Aug-02 01:01:17 1009.300 21.1 37 5.8         118.62
2011-Aug-02 02:01:15 1009.000 19.2 46 7.3         118.62
2011-Aug-02 03:01:15 1009.100 17.2 50 6.7         118.62
2011-Aug-02 04:01:10 1008.800 15.4 56 6.6         118.62
2011-Aug-02 05:01:14 1009.200 13.8 61 6.4         118.62
2011-Aug-02 06:01:12 1009.100 12.8 65 6.4         118.62
2011-Aug-02 07:31:13 1009.500 11.8 71 6.7         118.62
2011-Aug-02 08:01:16 1009.600 12.4 72 7.5         118.62
2011-Aug-02 09:01:17 1010.200 17.8 60 9.9         118.62
2011-Aug-02 10:01:13 1010.300 22.4 51 11.7         118.62
2011-Aug-02 11:01:18 1010.300 26.9 38 11.3         118.62
2011-Aug-02 12:01:15 1010.200 29.3 30 10.0         118.62
2011-Aug-02 13:01:14 1010.000 31.8 25 9.1         118.62
2011-Aug-02 14:01:16 1010.100 32.4 25 9.6         118.62
2011-Aug-02 15:01:14 1010.200 33.2 19 6.3         118.62
2011-Aug-02 16:01:14 1010.100 33.9 19 6.8         118.62
2011-Aug-02 17:01:40 1009.700 35.6 17 6.3         118.62
2011-Aug-02 18:01:38 1009.800 34.0 21 8.5         118.62
2011-Aug-02 19:01:39 1009.800 32.5 25 9.7 2.2 NE     118.62
2011-Aug-02 20:01:44 1010.500 28.9 29 9.0         118.62
2011-Aug-02 21:01:16 1011.400 25.7 34 8.6         118.62
2011-Aug-02 22:01:14 1012.700 22.8 39 8.1         118.62
2011-Aug-02 23:01:14 1013.300 21.1 45 8.6         118.62

Temperatura Máxima:35°    Temperatura Mínima:11°
Presión Máxima:1013.300 Hpa    Presión Mínima:1008.800 Hpa


Volver